sensor_id;sensor_type;location;lat;lon;timestamp;P1;durP1;ratioP1;P2;durP2;ratioP2
62711;SDS011;48772;55.586;37.730;2023-04-25T00:01:18;14.27;;;6.30;;
62711;SDS011;48772;55.586;37.730;2023-04-25T00:03:44;18.77;;;7.00;;
62711;SDS011;48772;55.586;37.730;2023-04-25T00:06:11;7.70;;;5.63;;
62711;SDS011;48772;55.586;37.730;2023-04-25T00:08:37;12.05;;;5.95;;
62711;SDS011;48772;55.586;37.730;2023-04-25T00:11:03;20.67;;;6.93;;
62711;SDS011;48772;55.586;37.730;2023-04-25T00:13:29;15.20;;;7.07;;
62711;SDS011;48772;55.586;37.730;2023-04-25T00:15:55;14.38;;;6.20;;
62711;SDS011;48772;55.586;37.730;2023-04-25T00:18:22;11.38;;;6.30;;
62711;SDS011;48772;55.586;37.730;2023-04-25T00:20:48;13.30;;;5.63;;
62711;SDS011;48772;55.586;37.730;2023-04-25T00:23:14;18.17;;;6.20;;
62711;SDS011;48772;55.586;37.730;2023-04-25T00:25:45;14.38;;;5.95;;
62711;SDS011;48772;55.586;37.730;2023-04-25T00:28:15;9.98;;;5.40;;
62711;SDS011;48772;55.586;37.730;2023-04-25T00:30:41;9.80;;;5.95;;
62711;SDS011;48772;55.586;37.730;2023-04-25T00:33:08;17.05;;;6.30;;
62711;SDS011;48772;55.586;37.730;2023-04-25T00:35:35;8.85;;;5.03;;
62711;SDS011;48772;55.586;37.730;2023-04-25T00:38:01;12.00;;;6.38;;
62711;SDS011;48772;55.586;37.730;2023-04-25T00:40:27;10.23;;;5.90;;
62711;SDS011;48772;55.586;37.730;2023-04-25T00:42:54;12.05;;;6.03;;
62711;SDS011;48772;55.586;37.730;2023-04-25T00:45:20;9.93;;;5.53;;
62711;SDS011;48772;55.586;37.730;2023-04-25T00:47:46;8.20;;;5.65;;
62711;SDS011;48772;55.586;37.730;2023-04-25T00:50:15;14.60;;;6.88;;
62711;SDS011;48772;55.586;37.730;2023-04-25T00:52:41;10.85;;;5.20;;
62711;SDS011;48772;55.586;37.730;2023-04-25T00:55:10;15.35;;;6.70;;
62711;SDS011;48772;55.586;37.730;2023-04-25T00:57:38;13.13;;;7.47;;
62711;SDS011;48772;55.586;37.730;2023-04-25T01:00:05;23.15;;;8.57;;
62711;SDS011;48772;55.586;37.730;2023-04-25T01:02:33;20.05;;;7.93;;
62711;SDS011;48772;55.586;37.730;2023-04-25T01:05:01;15.38;;;7.18;;
62711;SDS011;48772;55.586;37.730;2023-04-25T01:07:30;17.02;;;8.07;;
62711;SDS011;48772;55.586;37.730;2023-04-25T01:09:56;18.17;;;7.63;;
62711;SDS011;48772;55.586;37.730;2023-04-25T01:12:22;12.85;;;7.85;;
62711;SDS011;48772;55.586;37.730;2023-04-25T01:14:49;13.90;;;7.43;;
62711;SDS011;48772;55.586;37.730;2023-04-25T01:17:15;12.75;;;6.63;;
62711;SDS011;48772;55.586;37.730;2023-04-25T01:19:41;16.45;;;7.28;;
62711;SDS011;48772;55.586;37.730;2023-04-25T01:22:07;12.40;;;7.10;;
62711;SDS011;48772;55.586;37.730;2023-04-25T01:24:35;15.75;;;6.63;;
62711;SDS011;48772;55.586;37.730;2023-04-25T01:27:02;9.85;;;7.20;;
62711;SDS011;48772;55.586;37.730;2023-04-25T01:29:28;16.27;;;7.78;;
62711;SDS011;48772;55.586;37.730;2023-04-25T01:31:55;11.73;;;7.30;;
62711;SDS011;48772;55.586;37.730;2023-04-25T01:34:24;11.63;;;6.93;;
62711;SDS011;48772;55.586;37.730;2023-04-25T01:36:50;14.98;;;7.05;;
62711;SDS011;48772;55.586;37.730;2023-04-25T01:39:17;16.95;;;6.03;;
62711;SDS011;48772;55.586;37.730;2023-04-25T01:41:44;14.52;;;6.47;;
62711;SDS011;48772;55.586;37.730;2023-04-25T01:44:11;9.32;;;6.05;;
62711;SDS011;48772;55.586;37.730;2023-04-25T01:46:37;10.75;;;5.95;;
62711;SDS011;48772;55.586;37.730;2023-04-25T01:49:04;10.65;;;6.22;;
62711;SDS011;48772;55.586;37.730;2023-04-25T01:51:31;9.63;;;5.90;;
62711;SDS011;48772;55.586;37.730;2023-04-25T01:53:57;14.05;;;6.28;;
62711;SDS011;48772;55.586;37.730;2023-04-25T01:56:24;16.20;;;7.18;;
62711;SDS011;48772;55.586;37.730;2023-04-25T01:58:50;12.10;;;6.63;;
62711;SDS011;48772;55.586;37.730;2023-04-25T02:01:19;16.45;;;8.00;;
62711;SDS011;48772;55.586;37.730;2023-04-25T02:03:58;19.02;;;8.13;;
62711;SDS011;48772;55.586;37.730;2023-04-25T02:06:29;17.38;;;7.78;;
62711;SDS011;48772;55.586;37.730;2023-04-25T02:08:57;18.58;;;8.63;;
62711;SDS011;48772;55.586;37.730;2023-04-25T02:11:22;16.98;;;8.00;;
62711;SDS011;48772;55.586;37.730;2023-04-25T02:14:24;18.95;;;8.02;;
62711;SDS011;48772;55.586;37.730;2023-04-25T02:17:10;15.93;;;8.07;;
62711;SDS011;48772;55.586;37.730;2023-04-25T02:19:38;11.48;;;7.50;;
62711;SDS011;48772;55.586;37.730;2023-04-25T02:22:03;16.25;;;8.07;;
62711;SDS011;48772;55.586;37.730;2023-04-25T02:24:29;21.20;;;9.38;;
62711;SDS011;48772;55.586;37.730;2023-04-25T02:26:55;21.13;;;9.73;;
62711;SDS011;48772;55.586;37.730;2023-04-25T02:29:22;19.38;;;9.60;;
62711;SDS011;48772;55.586;37.730;2023-04-25T02:31:48;34.17;;;10.98;;
62711;SDS011;48772;55.586;37.730;2023-04-25T02:34:14;20.45;;;7.30;;
62711;SDS011;48772;55.586;37.730;2023-04-25T02:36:39;13.45;;;7.65;;
62711;SDS011;48772;55.586;37.730;2023-04-25T02:39:06;22.90;;;7.43;;
62711;SDS011;48772;55.586;37.730;2023-04-25T02:41:32;17.55;;;7.22;;
62711;SDS011;48772;55.586;37.730;2023-04-25T02:43:57;11.95;;;6.95;;
62711;SDS011;48772;55.586;37.730;2023-04-25T02:46:23;15.05;;;7.75;;
62711;SDS011;48772;55.586;37.730;2023-04-25T02:48:49;15.88;;;8.25;;
62711;SDS011;48772;55.586;37.730;2023-04-25T02:51:14;17.10;;;7.97;;
62711;SDS011;48772;55.586;37.730;2023-04-25T02:53:42;11.48;;;7.47;;
62711;SDS011;48772;55.586;37.730;2023-04-25T02:56:08;18.17;;;8.57;;
62711;SDS011;48772;55.586;37.730;2023-04-25T02:58:33;17.17;;;7.78;;
62711;SDS011;48772;55.586;37.730;2023-04-25T03:00:59;11.32;;;7.85;;
62711;SDS011;48772;55.586;37.730;2023-04-25T03:03:26;18.25;;;7.60;;
62711;SDS011;48772;55.586;37.730;2023-04-25T03:05:51;17.02;;;8.25;;
62711;SDS011;48772;55.586;37.730;2023-04-25T03:08:22;17.08;;;8.05;;
62711;SDS011;48772;55.586;37.730;2023-04-25T03:10:48;9.00;;;5.18;;
62711;SDS011;48772;55.586;37.730;2023-04-25T03:13:16;16.83;;;8.02;;
62711;SDS011;48772;55.586;37.730;2023-04-25T03:15:43;18.02;;;7.93;;
62711;SDS011;48772;55.586;37.730;2023-04-25T03:18:09;19.67;;;7.57;;
62711;SDS011;48772;55.586;37.730;2023-04-25T03:20:34;17.98;;;8.35;;
62711;SDS011;48772;55.586;37.730;2023-04-25T03:23:00;16.20;;;8.10;;
62711;SDS011;48772;55.586;37.730;2023-04-25T03:25:28;21.67;;;9.00;;
62711;SDS011;48772;55.586;37.730;2023-04-25T03:27:53;11.27;;;6.85;;
62711;SDS011;48772;55.586;37.730;2023-04-25T03:30:19;18.17;;;7.05;;
62711;SDS011;48772;55.586;37.730;2023-04-25T03:32:45;16.67;;;7.72;;
62711;SDS011;48772;55.586;37.730;2023-04-25T03:35:15;12.25;;;7.68;;
62711;SDS011;48772;55.586;37.730;2023-04-25T03:37:40;15.13;;;8.35;;
62711;SDS011;48772;55.586;37.730;2023-04-25T03:40:11;17.70;;;8.60;;
62711;SDS011;48772;55.586;37.730;2023-04-25T03:43:01;16.33;;;7.68;;
62711;SDS011;48772;55.586;37.730;2023-04-25T03:45:27;22.27;;;8.80;;
62711;SDS011;48772;55.586;37.730;2023-04-25T03:47:53;13.45;;;8.30;;
62711;SDS011;48772;55.586;37.730;2023-04-25T03:50:19;12.82;;;7.82;;
62711;SDS011;48772;55.586;37.730;2023-04-25T03:52:46;19.50;;;8.73;;
62711;SDS011;48772;55.586;37.730;2023-04-25T03:55:12;13.90;;;8.20;;
62711;SDS011;48772;55.586;37.730;2023-04-25T03:57:39;15.45;;;8.43;;
62711;SDS011;48772;55.586;37.730;2023-04-25T04:00:05;16.75;;;8.50;;
62711;SDS011;48772;55.586;37.730;2023-04-25T04:02:39;14.40;;;8.35;;
62711;SDS011;48772;55.586;37.730;2023-04-25T04:05:06;22.58;;;9.50;;
62711;SDS011;48772;55.586;37.730;2023-04-25T04:10:21;22.17;;;8.68;;
62711;SDS011;48772;55.586;37.730;2023-04-25T04:12:47;18.08;;;8.88;;
62711;SDS011;48772;55.586;37.730;2023-04-25T04:15:13;14.93;;;8.80;;
62711;SDS011;48772;55.586;37.730;2023-04-25T04:17:39;16.80;;;8.93;;
62711;SDS011;48772;55.586;37.730;2023-04-25T04:20:07;17.77;;;8.88;;
62711;SDS011;48772;55.586;37.730;2023-04-25T04:22:34;18.13;;;9.52;;
62711;SDS011;48772;55.586;37.730;2023-04-25T04:25:05;14.32;;;8.40;;
62711;SDS011;48772;55.586;37.730;2023-04-25T04:27:50;25.67;;;8.73;;
62711;SDS011;48772;55.586;37.730;2023-04-25T04:30:34;17.60;;;8.85;;
62711;SDS011;48772;55.586;37.730;2023-04-25T04:33:05;16.17;;;7.88;;
62711;SDS011;48772;55.586;37.730;2023-04-25T04:35:31;16.30;;;9.20;;
62711;SDS011;48772;55.586;37.730;2023-04-25T04:37:57;16.65;;;10.18;;
62711;SDS011;48772;55.586;37.730;2023-04-25T04:40:26;18.60;;;9.98;;
62711;SDS011;48772;55.586;37.730;2023-04-25T04:43:13;11.85;;;8.43;;
62711;SDS011;48772;55.586;37.730;2023-04-25T04:46:02;14.23;;;8.70;;
62711;SDS011;48772;55.586;37.730;2023-04-25T04:48:34;20.30;;;9.13;;
62711;SDS011;48772;55.586;37.730;2023-04-25T04:54:02;16.42;;;9.45;;
62711;SDS011;48772;55.586;37.730;2023-04-25T04:56:51;18.02;;;10.27;;
62711;SDS011;48772;55.586;37.730;2023-04-25T04:59:55;18.70;;;9.90;;
62711;SDS011;48772;55.586;37.730;2023-04-25T05:02:47;14.40;;;9.02;;
62711;SDS011;48772;55.586;37.730;2023-04-25T05:05:45;21.83;;;9.93;;
62711;SDS011;48772;55.586;37.730;2023-04-25T05:08:44;19.65;;;10.18;;
62711;SDS011;48772;55.586;37.730;2023-04-25T05:11:28;17.30;;;10.35;;
62711;SDS011;48772;55.586;37.730;2023-04-25T05:16:46;20.52;;;10.95;;
62711;SDS011;48772;55.586;37.730;2023-04-25T05:19:20;22.48;;;10.30;;
62711;SDS011;48772;55.586;37.730;2023-04-25T05:21:59;21.40;;;10.52;;
62711;SDS011;48772;55.586;37.730;2023-04-25T05:24:37;21.20;;;10.93;;
62711;SDS011;48772;55.586;37.730;2023-04-25T05:27:26;27.63;;;10.77;;
62711;SDS011;48772;55.586;37.730;2023-04-25T05:30:00;28.13;;;11.25;;
62711;SDS011;48772;55.586;37.730;2023-04-25T05:32:34;21.88;;;9.07;;
62711;SDS011;48772;55.586;37.730;2023-04-25T05:35:01;19.10;;;9.77;;
62711;SDS011;48772;55.586;37.730;2023-04-25T05:37:32;11.60;;;8.02;;
62711;SDS011;48772;55.586;37.730;2023-04-25T05:40:08;16.70;;;9.57;;
62711;SDS011;48772;55.586;37.730;2023-04-25T05:42:48;16.17;;;9.25;;
62711;SDS011;48772;55.586;37.730;2023-04-25T05:45:33;29.80;;;10.07;;
62711;SDS011;48772;55.586;37.730;2023-04-25T05:48:08;19.40;;;8.40;;
62711;SDS011;48772;55.586;37.730;2023-04-25T05:54:26;20.25;;;8.85;;
62711;SDS011;48772;55.586;37.730;2023-04-25T05:56:53;16.85;;;9.13;;
62711;SDS011;48772;55.586;37.730;2023-04-25T05:59:19;16.83;;;7.53;;
62711;SDS011;48772;55.586;37.730;2023-04-25T06:01:45;31.20;;;8.30;;
62711;SDS011;48772;55.586;37.730;2023-04-25T06:04:12;19.38;;;8.25;;
62711;SDS011;48772;55.586;37.730;2023-04-25T06:06:39;13.98;;;7.40;;
62711;SDS011;48772;55.586;37.730;2023-04-25T06:09:05;22.23;;;8.45;;
62711;SDS011;48772;55.586;37.730;2023-04-25T06:11:31;24.05;;;7.95;;
62711;SDS011;48772;55.586;37.730;2023-04-25T06:13:57;12.43;;;6.20;;
62711;SDS011;48772;55.586;37.730;2023-04-25T06:16:23;11.38;;;5.20;;
62711;SDS011;48772;55.586;37.730;2023-04-25T06:18:51;12.48;;;6.07;;
62711;SDS011;48772;55.586;37.730;2023-04-25T06:21:17;17.45;;;6.10;;
62711;SDS011;48772;55.586;37.730;2023-04-25T06:23:42;15.05;;;5.82;;
62711;SDS011;48772;55.586;37.730;2023-04-25T06:26:11;15.70;;;6.00;;
62711;SDS011;48772;55.586;37.730;2023-04-25T06:28:42;11.90;;;6.07;;
62711;SDS011;48772;55.586;37.730;2023-04-25T06:31:08;16.52;;;6.20;;
62711;SDS011;48772;55.586;37.730;2023-04-25T06:33:34;20.42;;;5.97;;
62711;SDS011;48772;55.586;37.730;2023-04-25T06:36:18;14.90;;;6.35;;
62711;SDS011;48772;55.586;37.730;2023-04-25T06:38:48;12.10;;;5.75;;
62711;SDS011;48772;55.586;37.730;2023-04-25T06:41:17;17.40;;;6.00;;
62711;SDS011;48772;55.586;37.730;2023-04-25T06:43:44;19.88;;;5.57;;
62711;SDS011;48772;55.586;37.730;2023-04-25T06:46:33;11.23;;;5.43;;
62711;SDS011;48772;55.586;37.730;2023-04-25T06:48:59;10.57;;;4.95;;
62711;SDS011;48772;55.586;37.730;2023-04-25T06:51:25;12.85;;;4.55;;
62711;SDS011;48772;55.586;37.730;2023-04-25T06:53:54;9.80;;;4.28;;
62711;SDS011;48772;55.586;37.730;2023-04-25T06:56:36;9.65;;;3.78;;
62711;SDS011;48772;55.586;37.730;2023-04-25T06:59:07;6.40;;;3.22;;
62711;SDS011;48772;55.586;37.730;2023-04-25T07:01:37;5.05;;;3.28;;
62711;SDS011;48772;55.586;37.730;2023-04-25T07:04:08;9.90;;;3.55;;
62711;SDS011;48772;55.586;37.730;2023-04-25T07:06:38;7.68;;;3.45;;
62711;SDS011;48772;55.586;37.730;2023-04-25T07:09:08;10.02;;;3.33;;
62711;SDS011;48772;55.586;37.730;2023-04-25T07:11:38;19.27;;;3.45;;
62711;SDS011;48772;55.586;37.730;2023-04-25T07:14:04;8.38;;;3.03;;
62711;SDS011;48772;55.586;37.730;2023-04-25T07:16:31;6.38;;;3.45;;
62711;SDS011;48772;55.586;37.730;2023-04-25T07:18:58;8.65;;;3.30;;
62711;SDS011;48772;55.586;37.730;2023-04-25T07:21:25;7.25;;;2.80;;
62711;SDS011;48772;55.586;37.730;2023-04-25T07:23:51;6.57;;;2.97;;
62711;SDS011;48772;55.586;37.730;2023-04-25T07:26:22;5.93;;;3.30;;
62711;SDS011;48772;55.586;37.730;2023-04-25T07:29:08;9.15;;;3.35;;
62711;SDS011;48772;55.586;37.730;2023-04-25T07:31:33;7.40;;;2.90;;
62711;SDS011;48772;55.586;37.730;2023-04-25T07:33:59;3.88;;;2.80;;
62711;SDS011;48772;55.586;37.730;2023-04-25T07:36:25;3.53;;;2.40;;
62711;SDS011;48772;55.586;37.730;2023-04-25T07:38:52;7.65;;;3.47;;
62711;SDS011;48772;55.586;37.730;2023-04-25T07:41:18;7.65;;;2.50;;
62711;SDS011;48772;55.586;37.730;2023-04-25T07:43:44;6.63;;;3.15;;
62711;SDS011;48772;55.586;37.730;2023-04-25T07:46:10;4.60;;;3.47;;
62711;SDS011;48772;55.586;37.730;2023-04-25T07:48:36;5.75;;;3.80;;
62711;SDS011;48772;55.586;37.730;2023-04-25T07:51:03;6.43;;;3.10;;
62711;SDS011;48772;55.586;37.730;2023-04-25T07:53:30;8.20;;;3.20;;
62711;SDS011;48772;55.586;37.730;2023-04-25T07:56:02;4.25;;;2.97;;
62711;SDS011;48772;55.586;37.730;2023-04-25T07:58:31;5.65;;;2.60;;
62711;SDS011;48772;55.586;37.730;2023-04-25T08:01:00;3.63;;;2.42;;
62711;SDS011;48772;55.586;37.730;2023-04-25T08:04:01;5.68;;;2.90;;
62711;SDS011;48772;55.586;37.730;2023-04-25T08:06:46;6.00;;;2.95;;
62711;SDS011;48772;55.586;37.730;2023-04-25T08:09:18;4.05;;;3.55;;
62711;SDS011;48772;55.586;37.730;2023-04-25T08:11:45;7.60;;;3.40;;
62711;SDS011;48772;55.586;37.730;2023-04-25T08:14:14;8.43;;;3.58;;
62711;SDS011;48772;55.586;37.730;2023-04-25T08:16:42;7.35;;;3.55;;
62711;SDS011;48772;55.586;37.730;2023-04-25T08:19:09;5.25;;;3.13;;
62711;SDS011;48772;55.586;37.730;2023-04-25T08:21:36;5.05;;;3.08;;
62711;SDS011;48772;55.586;37.730;2023-04-25T08:24:05;8.75;;;3.28;;
62711;SDS011;48772;55.586;37.730;2023-04-25T08:26:35;5.35;;;3.40;;
62711;SDS011;48772;55.586;37.730;2023-04-25T08:29:02;9.40;;;3.22;;
62711;SDS011;48772;55.586;37.730;2023-04-25T08:31:28;7.43;;;2.90;;
62711;SDS011;48772;55.586;37.730;2023-04-25T08:33:58;5.55;;;2.95;;
62711;SDS011;48772;55.586;37.730;2023-04-25T08:36:30;9.70;;;3.45;;
62711;SDS011;48772;55.586;37.730;2023-04-25T08:38:59;4.80;;;3.20;;
62711;SDS011;48772;55.586;37.730;2023-04-25T08:41:26;4.95;;;3.08;;
62711;SDS011;48772;55.586;37.730;2023-04-25T08:43:53;4.50;;;2.70;;
62711;SDS011;48772;55.586;37.730;2023-04-25T08:46:23;5.97;;;3.00;;
62711;SDS011;48772;55.586;37.730;2023-04-25T08:49:05;6.10;;;2.90;;
62711;SDS011;48772;55.586;37.730;2023-04-25T08:51:34;8.60;;;3.20;;
62711;SDS011;48772;55.586;37.730;2023-04-25T08:54:11;9.18;;;2.63;;
62711;SDS011;48772;55.586;37.730;2023-04-25T08:56:38;4.20;;;2.03;;
62711;SDS011;48772;55.586;37.730;2023-04-25T08:59:06;5.80;;;2.50;;
62711;SDS011;48772;55.586;37.730;2023-04-25T09:01:35;5.40;;;2.63;;
62711;SDS011;48772;55.586;37.730;2023-04-25T09:04:01;10.77;;;2.15;;
62711;SDS011;48772;55.586;37.730;2023-04-25T09:06:31;5.47;;;2.30;;
62711;SDS011;48772;55.586;37.730;2023-04-25T09:09:02;7.68;;;2.60;;
62711;SDS011;48772;55.586;37.730;2023-04-25T09:11:30;6.53;;;2.33;;
62711;SDS011;48772;55.586;37.730;2023-04-25T09:14:20;5.47;;;2.40;;
62711;SDS011;48772;55.586;37.730;2023-04-25T09:17:13;9.02;;;2.65;;
62711;SDS011;48772;55.586;37.730;2023-04-25T09:19:47;5.13;;;2.33;;
62711;SDS011;48772;55.586;37.730;2023-04-25T09:22:30;6.72;;;2.17;;
62711;SDS011;48772;55.586;37.730;2023-04-25T09:24:56;6.35;;;2.30;;
62711;SDS011;48772;55.586;37.730;2023-04-25T09:27:26;4.38;;;2.22;;
62711;SDS011;48772;55.586;37.730;2023-04-25T09:30:09;10.57;;;2.80;;
62711;SDS011;48772;55.586;37.730;2023-04-25T09:32:55;4.20;;;2.50;;
62711;SDS011;48772;55.586;37.730;2023-04-25T09:35:23;7.70;;;2.60;;
62711;SDS011;48772;55.586;37.730;2023-04-25T09:37:55;8.45;;;3.72;;
62711;SDS011;48772;55.586;37.730;2023-04-25T09:40:42;6.93;;;2.67;;
62711;SDS011;48772;55.586;37.730;2023-04-25T09:43:20;5.38;;;2.70;;
62711;SDS011;48772;55.586;37.730;2023-04-25T09:48:21;6.97;;;2.53;;
62711;SDS011;48772;55.586;37.730;2023-04-25T09:53:37;13.70;;;2.28;;
62711;SDS011;48772;55.586;37.730;2023-04-25T09:56:23;8.57;;;2.50;;
62711;SDS011;48772;55.586;37.730;2023-04-25T09:58:55;4.30;;;2.00;;
62711;SDS011;48772;55.586;37.730;2023-04-25T10:01:21;5.55;;;2.50;;
62711;SDS011;48772;55.586;37.730;2023-04-25T10:04:01;3.55;;;2.20;;
62711;SDS011;48772;55.586;37.730;2023-04-25T10:06:41;3.80;;;2.28;;
62711;SDS011;48772;55.586;37.730;2023-04-25T10:09:09;4.85;;;2.20;;
62711;SDS011;48772;55.586;37.730;2023-04-25T10:11:36;4.70;;;2.15;;
62711;SDS011;48772;55.586;37.730;2023-04-25T10:14:03;9.00;;;2.50;;
62711;SDS011;48772;55.586;37.730;2023-04-25T10:16:31;8.30;;;2.75;;
62711;SDS011;48772;55.586;37.730;2023-04-25T10:18:57;9.65;;;2.78;;
62711;SDS011;48772;55.586;37.730;2023-04-25T10:21:23;5.43;;;2.30;;
62711;SDS011;48772;55.586;37.730;2023-04-25T10:23:52;6.72;;;2.58;;
62711;SDS011;48772;55.586;37.730;2023-04-25T10:26:18;7.68;;;3.67;;
62711;SDS011;48772;55.586;37.730;2023-04-25T10:28:57;9.10;;;2.50;;
62711;SDS011;48772;55.586;37.730;2023-04-25T10:31:26;11.88;;;2.40;;
62711;SDS011;48772;55.586;37.730;2023-04-25T10:33:53;5.78;;;2.00;;
62711;SDS011;48772;55.586;37.730;2023-04-25T10:36:21;3.55;;;1.63;;
62711;SDS011;48772;55.586;37.730;2023-04-25T10:38:48;3.83;;;1.98;;
62711;SDS011;48772;55.586;37.730;2023-04-25T10:41:18;3.13;;;1.80;;
62711;SDS011;48772;55.586;37.730;2023-04-25T10:43:46;4.82;;;1.80;;
62711;SDS011;48772;55.586;37.730;2023-04-25T10:46:23;2.47;;;1.63;;
62711;SDS011;48772;55.586;37.730;2023-04-25T10:48:51;9.73;;;2.40;;
62711;SDS011;48772;55.586;37.730;2023-04-25T10:51:23;3.45;;;1.85;;
62711;SDS011;48772;55.586;37.730;2023-04-25T10:56:28;7.10;;;2.63;;
62711;SDS011;48772;55.586;37.730;2023-04-25T10:59:05;4.95;;;1.60;;
62711;SDS011;48772;55.586;37.730;2023-04-25T11:04:06;3.75;;;1.67;;
62711;SDS011;48772;55.586;37.730;2023-04-25T11:06:55;5.07;;;1.83;;
62711;SDS011;48772;55.586;37.730;2023-04-25T11:09:41;3.33;;;2.00;;
62711;SDS011;48772;55.586;37.730;2023-04-25T11:12:08;3.25;;;1.73;;
62711;SDS011;48772;55.586;37.730;2023-04-25T11:14:36;2.40;;;1.90;;
62711;SDS011;48772;55.586;37.730;2023-04-25T11:17:02;5.30;;;1.90;;
62711;SDS011;48772;55.586;37.730;2023-04-25T11:19:28;2.95;;;1.90;;
62711;SDS011;48772;55.586;37.730;2023-04-25T11:21:56;5.72;;;1.85;;
62711;SDS011;48772;55.586;37.730;2023-04-25T11:24:26;4.07;;;2.00;;
62711;SDS011;48772;55.586;37.730;2023-04-25T11:26:53;4.45;;;2.28;;
62711;SDS011;48772;55.586;37.730;2023-04-25T11:29:21;8.68;;;2.63;;
62711;SDS011;48772;55.586;37.730;2023-04-25T11:31:57;7.13;;;1.85;;
62711;SDS011;48772;55.586;37.730;2023-04-25T11:34:23;6.30;;;2.17;;
62711;SDS011;48772;55.586;37.730;2023-04-25T11:36:51;5.90;;;1.85;;
62711;SDS011;48772;55.586;37.730;2023-04-25T11:39:21;5.80;;;2.50;;
62711;SDS011;48772;55.586;37.730;2023-04-25T11:41:47;3.33;;;2.90;;
62711;SDS011;48772;55.586;37.730;2023-04-25T11:44:18;5.72;;;2.88;;
62711;SDS011;48772;55.586;37.730;2023-04-25T11:46:45;9.20;;;2.40;;
62711;SDS011;48772;55.586;37.730;2023-04-25T11:49:11;5.40;;;2.20;;
62711;SDS011;48772;55.586;37.730;2023-04-25T11:54:10;4.05;;;2.17;;
62711;SDS011;48772;55.586;37.730;2023-04-25T11:56:37;6.40;;;1.80;;
62711;SDS011;48772;55.586;37.730;2023-04-25T11:59:06;4.97;;;2.22;;
62711;SDS011;48772;55.586;37.730;2023-04-25T12:01:33;4.82;;;2.20;;
62711;SDS011;48772;55.586;37.730;2023-04-25T12:04:10;3.42;;;2.13;;
62711;SDS011;48772;55.586;37.730;2023-04-25T12:06:50;4.63;;;2.15;;
62711;SDS011;48772;55.586;37.730;2023-04-25T12:09:18;4.28;;;2.28;;
62711;SDS011;48772;55.586;37.730;2023-04-25T12:11:52;7.97;;;2.35;;
62711;SDS011;48772;55.586;37.730;2023-04-25T12:14:26;3.38;;;2.13;;
62711;SDS011;48772;55.586;37.730;2023-04-25T12:16:55;7.47;;;2.58;;
62711;SDS011;48772;55.586;37.730;2023-04-25T12:19:23;6.35;;;2.42;;
62711;SDS011;48772;55.586;37.730;2023-04-25T12:21:49;2.63;;;2.20;;
62711;SDS011;48772;55.586;37.730;2023-04-25T12:24:17;2.95;;;1.80;;
62711;SDS011;48772;55.586;37.730;2023-04-25T12:29:20;5.53;;;2.38;;
62711;SDS011;48772;55.586;37.730;2023-04-25T12:31:48;5.40;;;2.28;;
62711;SDS011;48772;55.586;37.730;2023-04-25T12:34:14;5.55;;;2.35;;
62711;SDS011;48772;55.586;37.730;2023-04-25T12:36:40;5.57;;;2.55;;
62711;SDS011;48772;55.586;37.730;2023-04-25T12:39:06;11.35;;;2.85;;
62711;SDS011;48772;55.586;37.730;2023-04-25T12:41:32;7.93;;;3.10;;
62711;SDS011;48772;55.586;37.730;2023-04-25T12:43:58;16.08;;;3.40;;
62711;SDS011;48772;55.586;37.730;2023-04-25T12:46:24;12.20;;;3.60;;
62711;SDS011;48772;55.586;37.730;2023-04-25T12:48:49;11.38;;;3.38;;
62711;SDS011;48772;55.586;37.730;2023-04-25T12:51:15;6.28;;;2.90;;
62711;SDS011;48772;55.586;37.730;2023-04-25T12:53:41;6.70;;;2.75;;
62711;SDS011;48772;55.586;37.730;2023-04-25T12:56:07;7.28;;;2.78;;
62711;SDS011;48772;55.586;37.730;2023-04-25T12:58:33;5.03;;;2.75;;
62711;SDS011;48772;55.586;37.730;2023-04-25T13:00:59;11.65;;;2.97;;
62711;SDS011;48772;55.586;37.730;2023-04-25T13:03:25;7.65;;;2.85;;
62711;SDS011;48772;55.586;37.730;2023-04-25T13:05:51;2.92;;;2.70;;
62711;SDS011;48772;55.586;37.730;2023-04-25T13:08:18;4.68;;;3.20;;
62711;SDS011;48772;55.586;37.730;2023-04-25T13:10:44;7.45;;;3.40;;
62711;SDS011;48772;55.586;37.730;2023-04-25T13:13:10;2.72;;;2.45;;
62711;SDS011;48772;55.586;37.730;2023-04-25T13:15:36;4.15;;;2.65;;
62711;SDS011;48772;55.586;37.730;2023-04-25T13:18:03;4.53;;;2.45;;
62711;SDS011;48772;55.586;37.730;2023-04-25T13:20:30;3.10;;;2.10;;
62711;SDS011;48772;55.586;37.730;2023-04-25T13:22:57;3.85;;;2.63;;
62711;SDS011;48772;55.586;37.730;2023-04-25T13:25:22;4.40;;;2.25;;
62711;SDS011;48772;55.586;37.730;2023-04-25T13:27:48;2.38;;;2.10;;
62711;SDS011;48772;55.586;37.730;2023-04-25T13:30:15;4.78;;;2.33;;
62711;SDS011;48772;55.586;37.730;2023-04-25T13:32:43;12.02;;;2.70;;
62711;SDS011;48772;55.586;37.730;2023-04-25T13:35:10;9.13;;;2.90;;
62711;SDS011;48772;55.586;37.730;2023-04-25T13:37:39;7.00;;;2.30;;
62711;SDS011;48772;55.586;37.730;2023-04-25T13:40:06;4.55;;;1.95;;
62711;SDS011;48772;55.586;37.730;2023-04-25T13:42:35;5.93;;;2.60;;
62711;SDS011;48772;55.586;37.730;2023-04-25T13:45:02;4.38;;;2.85;;
62711;SDS011;48772;55.586;37.730;2023-04-25T13:47:31;12.32;;;3.45;;
62711;SDS011;48772;55.586;37.730;2023-04-25T13:49:57;4.65;;;2.58;;
62711;SDS011;48772;55.586;37.730;2023-04-25T13:52:23;2.60;;;2.30;;
62711;SDS011;48772;55.586;37.730;2023-04-25T13:54:52;3.75;;;2.40;;
62711;SDS011;48772;55.586;37.730;2023-04-25T13:57:18;5.80;;;2.90;;
62711;SDS011;48772;55.586;37.730;2023-04-25T13:59:45;7.45;;;2.95;;
62711;SDS011;48772;55.586;37.730;2023-04-25T14:02:11;9.80;;;2.88;;
62711;SDS011;48772;55.586;37.730;2023-04-25T14:04:38;7.00;;;2.72;;
62711;SDS011;48772;55.586;37.730;2023-04-25T14:07:03;5.45;;;3.00;;
62711;SDS011;48772;55.586;37.730;2023-04-25T14:09:30;6.30;;;3.60;;
62711;SDS011;48772;55.586;37.730;2023-04-25T14:11:56;9.00;;;3.17;;
62711;SDS011;48772;55.586;37.730;2023-04-25T14:14:22;8.25;;;3.33;;
62711;SDS011;48772;55.586;37.730;2023-04-25T14:16:49;8.23;;;3.20;;
62711;SDS011;48772;55.586;37.730;2023-04-25T14:19:16;5.82;;;3.90;;
62711;SDS011;48772;55.586;37.730;2023-04-25T14:21:43;6.25;;;3.88;;
62711;SDS011;48772;55.586;37.730;2023-04-25T14:24:09;5.40;;;3.53;;
62711;SDS011;48772;55.586;37.730;2023-04-25T14:26:38;11.43;;;3.78;;
62711;SDS011;48772;55.586;37.730;2023-04-25T14:29:05;6.28;;;3.67;;
62711;SDS011;48772;55.586;37.730;2023-04-25T14:31:32;11.52;;;3.65;;
62711;SDS011;48772;55.586;37.730;2023-04-25T14:33:58;10.88;;;4.05;;
62711;SDS011;48772;55.586;37.730;2023-04-25T14:36:24;9.70;;;3.40;;
62711;SDS011;48772;55.586;37.730;2023-04-25T14:38:52;8.88;;;3.22;;
62711;SDS011;48772;55.586;37.730;2023-04-25T14:41:18;4.80;;;3.55;;
62711;SDS011;48772;55.586;37.730;2023-04-25T14:43:44;7.00;;;4.40;;
62711;SDS011;48772;55.586;37.730;2023-04-25T14:46:10;13.88;;;4.32;;
62711;SDS011;48772;55.586;37.730;2023-04-25T14:48:36;12.77;;;4.25;;
62711;SDS011;48772;55.586;37.730;2023-04-25T14:51:02;6.35;;;4.28;;
62711;SDS011;48772;55.586;37.730;2023-04-25T14:53:28;7.85;;;4.25;;
62711;SDS011;48772;55.586;37.730;2023-04-25T14:55:54;7.07;;;4.70;;
62711;SDS011;48772;55.586;37.730;2023-04-25T14:58:19;8.35;;;4.05;;
62711;SDS011;48772;55.586;37.730;2023-04-25T15:00:46;8.80;;;4.40;;
62711;SDS011;48772;55.586;37.730;2023-04-25T15:03:12;13.07;;;5.45;;
62711;SDS011;48772;55.586;37.730;2023-04-25T15:05:39;8.52;;;4.50;;
62711;SDS011;48772;55.586;37.730;2023-04-25T15:08:05;7.45;;;4.13;;
62711;SDS011;48772;55.586;37.730;2023-04-25T15:10:31;8.45;;;3.85;;